Time;durP1;ratioP1;P1;durP2;ratioP2;P2;SDS_P1;SDS_P2;PMS_P1;PMS_P2;Temp;Humidity;BMP_temperature;BMP_pressure;BME280_temperature;BME280_humidity;BME280_pressure;Samples;Min_cycle;Max_cycle;Signal;HPM_P1;HPM_P2
2022/05/17 00:01:22;;;;;;;10.90;9.83;;;;;;;14.31;100.00;100492.91;5056609;28;20313;-60
2022/05/17 00:03:48;;;;;;;11.60;10.50;;;;;;;14.26;100.00;100488.94;5039552;28;20558;-59
2022/05/17 00:06:14;;;;;;;13.60;10.23;;;;;;;14.26;100.00;100478.59;5050022;28;20670;-59
2022/05/17 00:08:39;;;;;;;11.37;10.17;;;;;;;14.14;100.00;100482.78;5065029;28;20299;-59
2022/05/17 00:11:06;;;;;;;10.80;9.67;;;;;;;13.95;100.00;100478.78;5020596;28;20372;-58
2022/05/17 00:13:32;;;;;;;12.03;10.77;;;;;;;13.91;100.00;100482.50;5035018;28;20185;-59
2022/05/17 00:15:58;;;;;;;10.40;9.20;;;;;;;13.79;100.00;100485.84;5044963;28;20252;-62
2022/05/17 00:18:25;;;;;;;12.37;9.60;;;;;;;13.83;100.00;100482.13;5030158;28;20221;-59
2022/05/17 00:20:50;;;;;;;12.17;9.63;;;;;;;13.76;100.00;100484.28;5028506;28;20290;-59
2022/05/17 00:23:16;;;;;;;10.30;9.23;;;;;;;13.72;100.00;100487.97;5020529;28;20191;-58
2022/05/17 00:25:44;;;;;;;9.90;8.90;;;;;;;13.70;100.00;100490.63;5010636;28;20232;-60
2022/05/17 00:28:09;;;;;;;10.97;9.60;;;;;;;13.72;100.00;100487.97;5026082;28;20175;-59
2022/05/17 00:30:35;;;;;;;12.23;9.10;;;;;;;13.68;100.00;100482.16;5012710;28;20406;-59
2022/05/17 00:33:00;;;;;;;10.43;8.97;;;;;;;13.72;100.00;100486.22;5059036;28;20170;-59
2022/05/17 00:35:26;;;;;;;12.33;8.60;;;;;;;13.66;100.00;100483.19;5032490;28;20503;-63
2022/05/17 00:37:51;;;;;;;10.30;9.10;;;;;;;13.78;100.00;100490.19;5047954;28;20178;-58
2022/05/17 00:40:17;;;;;;;13.53;10.03;;;;;;;13.80;100.00;100488.31;5041161;28;20207;-60
2022/05/17 00:42:42;;;;;;;12.43;10.30;;;;;;;13.77;100.00;100479.91;5080086;28;20778;-59
2022/05/17 00:45:09;;;;;;;13.63;10.17;;;;;;;13.63;100.00;100483.38;5052324;28;20212;-58
2022/05/17 00:48:04;;;;;;;17.53;9.83;;;;;;;13.55;100.00;100483.84;5066848;28;20173;-58
2022/05/17 00:50:37;;;;;;;14.20;10.03;;;;;;;13.58;100.00;100491.38;5045501;28;20335;-59
2022/05/17 00:53:07;;;;;;;13.93;9.67;;;;;;;13.60;100.00;100486.16;5074680;28;20173;-58
2022/05/17 00:55:40;;;;;;;11.47;10.27;;;;;;;13.56;100.00;100490.66;5058730;28;20192;-58
2022/05/17 00:58:26;;;;;;;13.40;9.97;;;;;;;13.45;100.00;100480.97;5082391;28;20178;-58
2022/05/17 01:01:02;;;;;;;11.63;10.50;;;;;;;13.51;100.00;100485.78;5050866;28;20220;-58
2022/05/17 01:03:32;;;;;;;11.17;10.07;;;;;;;13.52;100.00;100486.59;5053138;28;20180;-59
2022/05/17 01:05:57;;;;;;;13.47;10.93;;;;;;;13.53;100.00;100481.34;5086952;28;20195;-61
2022/05/17 01:08:24;;;;;;;13.20;10.27;;;;;;;13.61;100.00;100490.41;5073929;28;20566;-58
2022/05/17 01:10:50;;;;;;;12.70;11.10;;;;;;;13.64;100.00;100490.19;5070509;28;20252;-57
2022/05/17 01:15:59;;;;;;;14.93;11.03;;;;;;;13.41;100.00;100495.00;5034198;28;20213;-59
2022/05/17 01:18:25;;;;;;;11.63;10.43;;;;;;;13.30;100.00;100493.03;5045286;28;20181;-58
2022/05/17 01:20:50;;;;;;;15.63;11.10;;;;;;;13.20;100.00;100497.91;5047904;28;20260;-58
2022/05/17 01:23:16;;;;;;;11.20;10.07;;;;;;;13.21;100.00;100496.19;5062524;28;20188;-59
2022/05/17 01:25:41;;;;;;;12.63;11.03;;;;;;;13.07;100.00;100499.56;5071212;28;20290;-58
2022/05/17 01:28:26;;;;;;;11.50;10.30;;;;;;;13.26;100.00;100501.06;5082029;28;20181;-58
2022/05/17 01:30:52;;;;;;;12.13;10.87;;;;;;;13.42;100.00;100499.25;5070684;28;20240;-58
2022/05/17 01:33:20;;;;;;;14.37;11.57;;;;;;;13.42;100.00;100498.41;5057177;28;20630;-58
2022/05/17 01:35:46;;;;;;;12.43;10.80;;;;;;;13.38;100.00;100497.78;5067356;28;20204;-58
2022/05/17 01:38:12;;;;;;;12.53;11.20;;;;;;;13.26;100.00;100496.72;5063880;28;20263;-59
2022/05/17 01:40:38;;;;;;;11.97;10.77;;;;;;;13.03;100.00;100496.31;5075849;28;20221;-58
2022/05/17 01:43:04;;;;;;;13.13;11.43;;;;;;;12.94;100.00;100499.44;5087142;28;20189;-60
2022/05/17 01:45:29;;;;;;;12.73;11.30;;;;;;;12.83;100.00;100494.09;5070744;28;20191;-59
2022/05/17 01:47:55;;;;;;;12.73;11.43;;;;;;;12.98;100.00;100505.28;5075240;28;20242;-59
2022/05/17 01:50:24;;;;;;;12.20;10.63;;;;;;;13.01;100.00;100505.06;5051026;28;20205;-58
2022/05/17 01:52:49;;;;;;;12.47;11.23;;;;;;;13.03;100.00;100506.66;5073510;28;20186;-59
2022/05/17 01:55:15;;;;;;;13.87;12.47;;;;;;;13.00;100.00;100498.25;5060941;28;20569;-58
2022/05/17 01:57:40;;;;;;;12.50;11.30;;;;;;;13.01;100.00;100500.75;5057376;28;20177;-58
2022/05/17 02:00:09;;;;;;;15.27;11.93;;;;;;;12.99;100.00;100501.78;5063441;28;20234;-58
2022/05/17 02:02:36;;;;;;;13.00;11.57;;;;;;;12.83;100.00;100512.97;5084991;28;20185;-58
2022/05/17 02:05:05;;;;;;;14.37;11.30;;;;;;;12.81;100.00;100498.50;5086115;28;20177;-58
2022/05/17 02:07:31;;;;;;;13.27;11.07;;;;;;;12.69;100.00;100506.03;5082864;28;20188;-59
2022/05/17 02:09:56;;;;;;;12.10;10.80;;;;;;;12.74;100.00;100501.44;5068651;28;20657;-59
2022/05/17 02:12:21;;;;;;;11.63;10.53;;;;;;;12.75;100.00;100499.66;5065176;28;20224;-58
2022/05/17 02:14:47;;;;;;;12.17;10.93;;;;;;;12.80;100.00;100509.72;5049872;28;20741;-59
2022/05/17 02:17:12;;;;;;;13.20;11.03;;;;;;;12.73;100.00;100499.75;5061921;28;20699;-58
2022/05/17 02:19:38;;;;;;;12.63;11.03;;;;;;;12.72;100.00;100505.84;5057264;28;20599;-58
2022/05/17 02:22:04;;;;;;;13.30;10.77;;;;;;;12.75;100.00;100499.66;5054238;28;20232;-58
2022/05/17 02:24:30;;;;;;;14.87;11.60;;;;;;;12.75;100.00;100497.94;5037795;28;20198;-58
2022/05/17 02:26:56;;;;;;;13.53;12.13;;;;;;;12.82;100.00;100498.41;5052337;28;20185;-57
2022/05/17 02:29:23;;;;;;;14.47;12.20;;;;;;;12.73;100.00;100499.75;5055455;28;20196;-58
2022/05/17 02:31:50;;;;;;;15.97;13.27;;;;;;;12.68;100.00;100499.19;5037357;28;20778;-59
2022/05/17 02:34:16;;;;;;;16.27;11.97;;;;;;;12.53;100.00;100506.06;5013264;28;20213;-57
2022/05/17 02:36:41;;;;;;;13.87;12.47;;;;;;;12.54;100.00;100509.47;5012459;28;20221;-58
2022/05/17 02:39:06;;;;;;;13.17;11.97;;;;;;;12.54;100.00;100504.28;5020257;28;20208;-58
2022/05/17 02:41:32;;;;;;;13.10;11.77;;;;;;;12.57;100.00;100506.72;5023966;28;20411;-60
2022/05/17 02:43:57;;;;;;;13.77;12.30;;;;;;;12.53;100.00;100512.97;5023309;28;20565;-58
2022/05/17 02:46:22;;;;;;;14.00;12.43;;;;;;;12.56;100.00;100516.19;5019667;28;20197;-59
2022/05/17 02:48:48;;;;;;;14.97;12.93;;;;;;;12.56;100.00;100512.78;5024383;28;20181;-60
2022/05/17 02:51:16;;;;;;;17.33;11.93;;;;;;;12.58;100.00;100518.72;5039310;28;20241;-58
2022/05/17 02:53:42;;;;;;;16.83;12.33;;;;;;;12.58;100.00;100518.72;5029239;28;20181;-59
2022/05/17 02:56:08;;;;;;;14.27;12.77;;;;;;;12.55;100.00;100511.97;5029904;28;20180;-59
2022/05/17 02:58:34;;;;;;;13.57;12.20;;;;;;;12.56;100.00;100520.53;5010679;28;20195;-59
2022/05/17 03:00:59;;;;;;;16.07;12.73;;;;;;;12.58;100.00;100523.88;4998433;28;20233;-59
2022/05/17 03:03:25;;;;;;;13.63;12.23;;;;;;;12.62;100.00;100522.78;5037846;28;20199;-59
2022/05/17 03:05:50;;;;;;;13.50;12.20;;;;;;;12.56;100.00;100521.34;5058498;28;20177;-61
2022/05/17 03:08:16;;;;;;;15.87;13.23;;;;;;;12.53;100.00;100528.47;5049821;28;20742;-58
2022/05/17 03:10:41;;;;;;;14.33;12.70;;;;;;;12.54;100.00;100533.53;5049793;28;20607;-59
2022/05/17 03:13:10;;;;;;;16.07;13.73;;;;;;;12.50;100.00;100532.06;5068718;28;20180;-60
2022/05/17 03:15:36;;;;;;;14.97;13.30;;;;;;;12.48;100.00;100528.72;5061645;28;20238;-60
2022/05/17 03:18:02;;;;;;;14.43;12.90;;;;;;;12.43;100.00;100528.13;5063770;28;20228;-59
2022/05/17 03:20:27;;;;;;;19.90;13.00;;;;;;;12.40;100.00;100534.31;5050625;28;20231;-59
2022/05/17 03:22:52;;;;;;;14.63;11.73;;;;;;;12.36;100.00;100535.38;5083655;28;20176;-57
2022/05/17 03:25:18;;;;;;;16.23;13.40;;;;;;;12.38;100.00;100541.28;5066920;28;20632;-57
2022/05/17 03:27:43;;;;;;;16.43;13.10;;;;;;;12.34;100.00;100537.22;5067722;28;20188;-57
2022/05/17 03:30:09;;;;;;;16.63;13.27;;;;;;;12.34;100.00;100541.53;5037020;28;20222;-60
2022/05/17 03:32:34;;;;;;;16.53;13.10;;;;;;;12.37;100.00;100534.47;5052822;28;20192;-58
2022/05/17 03:35:00;;;;;;;17.57;13.87;;;;;;;12.31;100.00;100544.28;5058410;28;20230;-58
2022/05/17 03:37:25;;;;;;;14.37;12.90;;;;;;;12.30;100.00;100537.47;5052582;28;20214;-64
2022/05/17 03:39:52;;;;;;;14.33;12.93;;;;;;;12.27;100.00;100539.28;5051545;28;20314;-58
2022/05/17 03:42:17;;;;;;;14.77;13.23;;;;;;;12.27;100.00;100541.88;5054240;28;20242;-58
2022/05/17 03:44:43;;;;;;;13.77;12.37;;;;;;;12.29;100.00;100546.13;5064039;28;20188;-58
2022/05/17 03:47:08;;;;;;;15.90;11.93;;;;;;;12.27;100.00;100541.88;5049410;28;20185;-57
2022/05/17 03:49:36;;;;;;;15.07;13.13;;;;;;;12.26;100.00;100537.63;5051969;28;20236;-58
2022/05/17 03:52:02;;;;;;;16.20;12.70;;;;;;;12.25;100.00;100537.72;5052385;28;20640;-63
2022/05/17 03:54:28;;;;;;;14.60;13.10;;;;;;;12.37;100.00;100542.19;5058704;28;20261;-63
2022/05/17 03:56:53;;;;;;;17.57;15.23;;;;;;;12.42;100.00;100544.53;5065052;28;20185;-62
2022/05/17 03:59:19;;;;;;;18.77;14.20;;;;;;;12.47;100.00;100546.88;5067533;28;20568;-64
2022/05/17 04:01:44;;;;;;;17.43;14.33;;;;;;;12.50;100.00;100550.13;5057441;28;20618;-63
2022/05/17 04:04:11;;;;;;;16.10;14.50;;;;;;;12.53;100.00;100554.28;5057515;28;20189;-64
2022/05/17 04:06:36;;;;;;;18.47;15.13;;;;;;;12.65;100.00;100540.69;5068926;28;20257;-63
2022/05/17 04:09:02;;;;;;;16.73;14.97;;;;;;;12.72;100.00;100549.72;5064445;28;20194;-62
2022/05/17 04:11:28;;;;;;;16.27;14.43;;;;;;;12.94;100.00;100552.81;5056412;28;20240;-63
2022/05/17 04:13:53;;;;;;;15.03;13.30;;;;;;;12.99;100.00;100546.50;5059511;28;20188;-63
2022/05/17 04:16:19;;;;;;;15.57;13.83;;;;;;;13.10;100.00;100555.34;5065596;28;20216;-63
2022/05/17 04:18:46;;;;;;;15.93;14.33;;;;;;;13.07;100.00;100558.94;5062083;28;20611;-63
2022/05/17 04:21:12;;;;;;;15.77;13.87;;;;;;;12.90;100.00;100565.94;5046957;28;20256;-62
2022/05/17 04:23:38;;;;;;;15.53;14.03;;;;;;;13.00;100.00;100565.38;5066808;28;20223;-63
2022/05/17 04:26:03;;;;;;;15.50;13.87;;;;;;;13.06;100.00;100570.19;5070849;28;20191;-65
2022/05/17 04:28:29;;;;;;;13.90;12.17;;;;;;;13.11;100.00;100567.34;5074812;28;20472;-62
2022/05/17 04:30:55;;;;;;;14.70;12.90;;;;;;;13.15;100.00;100574.03;5051876;28;20322;-63
2022/05/17 04:33:21;;;;;;;17.00;13.00;;;;;;;13.31;100.00;100579.09;5045252;28;20228;-64
2022/05/17 04:35:46;;;;;;;13.80;12.50;;;;;;;13.36;100.00;100577.13;5085063;28;20177;-63
2022/05/17 04:38:12;;;;;;;13.20;11.90;;;;;;;13.37;100.00;100573.59;5063622;28;20214;-63
2022/05/17 04:40:37;;;;;;;13.10;11.87;;;;;;;13.39;100.00;100577.78;5052547;28;20735;-59
2022/05/17 04:43:02;;;;;;;12.53;10.43;;;;;;;13.54;100.00;100578.66;5057157;28;20231;-61
2022/05/17 04:45:28;;;;;;;12.00;10.87;;;;;;;13.50;100.00;100582.31;5057231;28;20234;-60
2022/05/17 04:47:53;;;;;;;11.53;9.97;;;;;;;13.54;100.00;100582.97;5062747;28;20189;-59
2022/05/17 04:50:19;;;;;;;13.40;12.00;;;;;;;13.51;100.00;100591.75;5045316;28;20777;-59
2022/05/17 04:52:47;;;;;;;12.40;11.20;;;;;;;13.53;100.00;100595.06;5069229;28;20522;-59
2022/05/17 04:55:14;;;;;;;12.77;11.57;;;;;;;13.67;100.00;100590.84;5071961;28;20195;-59
2022/05/17 04:57:39;;;;;;;13.87;11.37;;;;;;;13.59;100.00;100586.09;5071895;28;20176;-60
2022/05/17 05:00:07;;;;;;;12.17;10.93;;;;;;;13.76;100.00;100592.03;5056768;28;20177;-59
2022/05/17 05:02:32;;;;;;;14.43;10.30;;;;;;;13.85;100.00;100591.47;5057863;28;20275;-59
2022/05/17 05:04:58;;;;;;;12.23;10.57;;;;;;;13.83;100.00;100591.56;5072507;28;20319;-60
2022/05/17 05:07:23;;;;;;;11.03;9.93;;;;;;;13.98;100.00;100597.56;5080992;28;20184;-60
2022/05/17 05:09:48;;;;;;;10.73;9.63;;;;;;;13.96;100.00;100594.22;5064743;28;20201;-59
2022/05/17 05:12:14;;;;;;;11.10;9.90;;;;;;;14.15;100.00;100593.97;5042089;28;20247;-63
2022/05/17 05:14:39;;;;;;;11.33;10.03;;;;;;;14.31;100.00;100585.22;5053273;28;20209;-59
2022/05/17 05:17:04;;;;;;;12.60;9.30;;;;;;;14.35;100.00;100587.53;5053668;28;20224;-59
2022/05/17 05:19:30;;;;;;;10.57;9.60;;;;;;;14.61;100.00;100590.25;5055708;28;20550;-58
2022/05/17 05:21:55;;;;;;;10.50;9.50;;;;;;;14.64;100.00;100591.81;5045927;28;20316;-59
2022/05/17 05:24:20;;;;;;;9.73;8.77;;;;;;;14.69;100.00;100587.19;5065090;28;20268;-59
2022/05/17 05:26:45;;;;;;;10.13;9.03;;;;;;;14.87;100.00;100590.34;5068063;28;20640;-59
2022/05/17 05:29:11;;;;;;;11.27;9.10;;;;;;;15.05;100.00;100595.28;5065602;28;20213;-62
2022/05/17 05:31:36;;;;;;;9.33;8.47;;;;;;;15.36;100.00;100593.25;5058826;28;20225;-59
2022/05/17 05:34:01;;;;;;;12.43;8.80;;;;;;;15.44;100.00;100593.53;5065161;28;20182;-59
2022/05/17 05:36:28;;;;;;;10.20;9.03;;;;;;;15.65;100.00;100593.84;5062045;28;20181;-60
2022/05/17 05:38:54;;;;;;;23.07;20.60;;;;;;;15.93;100.00;100597.19;5069538;28;20254;-58
2022/05/17 05:41:19;;;;;;;9.27;8.30;;;;;;;16.11;100.00;100603.69;5055240;28;20229;-60
2022/05/17 05:43:44;;;;;;;8.50;7.80;;;;;;;16.33;100.00;100601.34;5055966;28;20189;-60
2022/05/17 05:46:10;;;;;;;8.27;7.47;;;;;;;16.42;100.00;100604.13;5064431;28;20189;-59
2022/05/17 05:48:36;;;;;;;9.33;8.37;;;;;;;16.25;100.00;100604.50;5055601;28;20209;-59
2022/05/17 05:51:01;;;;;;;8.57;7.80;;;;;;;16.35;100.00;100604.66;5048275;28;20317;-59
2022/05/17 05:53:26;;;;;;;8.90;7.90;;;;;;;16.38;100.00;100605.25;5068113;28;20188;-61
2022/05/17 05:56:01;;;;;;;9.83;7.57;;;;;;;16.64;100.00;100606.94;5070648;28;20185;-58
2022/05/17 05:58:28;;;;;;;10.27;7.30;;;;;;;16.88;100.00;100606.94;5064789;28;20178;-58
2022/05/17 06:00:53;;;;;;;9.47;7.73;;;;;;;16.91;100.00;100610.16;5039319;28;20233;-60
2022/05/17 06:03:19;;;;;;;8.53;7.53;;;;;;;17.09;100.00;100609.75;5050842;28;20606;-58
2022/05/17 06:05:44;;;;;;;7.97;7.27;;;;;;;17.53;100.00;100615.19;5021696;28;20193;-58
2022/05/17 06:08:13;;;;;;;8.23;7.40;;;;;;;17.89;99.13;100616.72;5021149;28;20221;-59
2022/05/17 06:10:41;;;;;;;8.80;7.03;;;;;;;17.78;97.48;100614.13;5027464;28;20310;-59
2022/05/17 06:13:07;;;;;;;8.67;6.97;;;;;;;18.00;97.10;100612.50;5061881;28;20184;-59
2022/05/17 06:15:32;;;;;;;8.43;6.47;;;;;;;18.16;95.88;100622.53;5042125;28;20233;-59
2022/05/17 06:18:01;;;;;;;8.80;6.87;;;;;;;18.44;93.67;100621.19;5033773;28;20253;-59
2022/05/17 06:20:27;;;;;;;7.27;6.57;;;;;;;18.92;91.77;100614.78;5042299;28;20232;-59
2022/05/17 06:22:52;;;;;;;7.53;6.73;;;;;;;19.41;87.63;100617.72;5047072;28;20188;-59
2022/05/17 06:25:17;;;;;;;9.23;7.33;;;;;;;19.16;86.56;100624.97;5032225;28;20185;-59
2022/05/17 06:27:43;;;;;;;8.23;6.80;;;;;;;19.59;86.02;100627.56;5037198;28;20192;-59
2022/05/17 06:30:10;;;;;;;7.63;6.57;;;;;;;20.21;82.08;100620.53;5039926;28;20201;-59
2022/05/17 06:32:35;;;;;;;7.07;6.37;;;;;;;20.59;78.21;100620.72;5063628;28;20295;-59
2022/05/17 06:35:00;;;;;;;8.93;5.73;;;;;;;20.79;76.13;100626.84;5062026;28;20644;-60
2022/05/17 06:37:26;;;;;;;7.43;6.50;;;;;;;21.29;72.31;100625.81;5045670;28;20686;-59
2022/05/17 06:39:51;;;;;;;6.93;5.30;;;;;;;22.21;69.51;100628.69;5043929;28;20185;-59
2022/05/17 06:42:16;;;;;;;6.27;5.23;;;;;;;22.50;65.00;100631.16;5040596;28;20225;-59
2022/05/17 06:44:42;;;;;;;6.17;5.53;;;;;;;22.75;62.34;100630.53;5046477;28;20747;-59
2022/05/17 06:47:08;;;;;;;5.77;4.73;;;;;;;22.28;62.86;100627.13;5051303;28;20181;-59
2022/05/17 06:49:37;;;;;;;4.97;4.47;;;;;;;22.64;60.95;100627.19;5053178;28;20257;-59
2022/05/17 06:52:03;;;;;;;6.83;4.50;;;;;;;23.63;57.76;100617.41;5062502;28;20249;-58
2022/05/17 06:54:29;;;;;;;7.20;4.00;;;;;;;23.84;53.75;100621.41;5044126;28;20180;-58
2022/05/17 06:56:54;;;;;;;7.17;4.10;;;;;;;24.28;51.98;100620.47;5044215;28;21132;-58
2022/05/17 06:59:19;;;;;;;5.03;4.20;;;;;;;25.33;49.61;100624.28;5049448;28;20193;-58
2022/05/17 07:01:47;;;;;;;3.92;3.20;;;;;;;25.23;46.23;100627.09;5034876;28;20254;-58
2022/05/17 07:04:13;;;;;;;7.28;3.00;;;;;;;25.18;45.50;100619.72;5044712;28;20272;-59
2022/05/17 07:06:39;;;;;;;5.93;3.33;;;;;;;25.70;43.95;100625.50;5040695;28;20211;-60
2022/05/17 07:09:04;;;;;;;5.90;3.45;;;;;;;26.20;43.00;100631.44;5031356;28;20241;-74
2022/05/17 07:14:15;;;;;;;8.35;4.18;;;;;;;27.39;40.53;100628.34;5049738;28;20622;-73
2022/05/17 07:16:40;;;;;;;6.53;3.60;;;;;;;27.12;41.12;100629.78;5065162;28;20319;-73
2022/05/17 07:19:05;;;;;;;4.63;3.88;;;;;;;27.35;40.36;100634.97;5053220;28;20347;-68
2022/05/17 07:24:53;;;;;;;4.72;3.13;;;;;;;28.61;37.93;100639.34;5048797;28;20552;-68
2022/05/17 07:27:18;;;;;;;4.70;3.20;;;;;;;28.70;35.52;100646.16;5051416;28;20177;-68
2022/05/17 07:29:43;;;;;;;10.27;4.07;;;;;;;29.69;34.73;100643.63;5052436;28;20228;-68
2022/05/17 07:32:09;;;;;;;4.93;3.03;;;;;;;29.25;35.38;100650.88;5013569;28;20249;-67
2022/05/17 07:34:35;;;;;;;6.30;3.80;;;;;;;28.71;35.70;100647.00;5053081;28;20181;-67
2022/05/17 07:37:01;;;;;;;6.65;4.00;;;;;;;28.08;36.97;100655.50;5040921;28;20188;-67
2022/05/17 07:39:26;;;;;;;6.47;3.67;;;;;;;30.18;35.04;100649.72;5060037;28;20192;-67
2022/05/17 07:41:52;;;;;;;5.20;3.17;;;;;;;31.04;32.60;100658.81;5072812;28;20398;-69
2022/05/17 07:44:18;;;;;;;4.85;3.40;;;;;;;29.36;34.86;100658.31;5073168;28;20180;-67
2022/05/17 07:46:43;;;;;;;5.35;3.17;;;;;;;28.35;37.25;100667.19;5069038;28;20214;-66
2022/05/17 07:49:09;;;;;;;8.57;3.05;;;;;;;29.00;37.48;100659.28;5065850;28;20177;-68
2022/05/17 07:51:35;;;;;;;5.63;3.08;;;;;;;29.20;35.86;100654.13;5064123;28;20289;-68
2022/05/17 07:54:00;;;;;;;5.60;3.92;;;;;;;29.65;35.59;100661.75;5045907;28;20178;-68
2022/05/17 07:56:26;;;;;;;6.63;3.97;;;;;;;30.07;34.80;100659.91;5059400;28;20188;-67
2022/05/17 07:58:51;;;;;;;4.55;3.40;;;;;;;30.40;34.97;100663.66;5062949;28;20628;-68
2022/05/17 08:01:16;;;;;;;5.47;3.35;;;;;;;30.94;34.40;100667.22;5062169;28;20675;-68
2022/05/17 08:03:42;;;;;;;4.85;3.40;;;;;;;31.78;32.37;100669.31;5057920;28;20173;-68
2022/05/17 08:06:07;;;;;;;7.03;3.47;;;;;;;31.26;31.82;100658.59;5064666;28;20556;-68
2022/05/17 08:08:33;;;;;;;7.85;3.75;;;;;;;31.95;31.55;100664.34;5068538;28;20607;-65
2022/05/17 08:10:58;;;;;;;10.07;3.55;;;;;;;32.14;31.11;100668.75;5052743;28;20794;-64
2022/05/17 08:13:25;;;;;;;6.85;3.60;;;;;;;31.50;31.58;100665.09;5056948;28;20181;-67
2022/05/17 08:15:51;;;;;;;7.50;3.88;;;;;;;31.94;31.64;100668.03;5055141;28;20208;-63
2022/05/17 08:18:17;;;;;;;6.18;3.28;;;;;;;31.89;30.66;100670.53;5064039;28;20224;-65
2022/05/17 08:20:43;;;;;;;6.20;3.55;;;;;;;31.22;32.92;100677.63;5061607;28;21035;-63
2022/05/17 08:23:09;;;;;;;7.65;4.97;;;;;;;31.36;31.28;100667.00;5059736;28;20284;-63
2022/05/17 08:28:20;;;;;;;6.57;4.40;;;;;;;30.94;32.28;100671.72;5051161;28;20223;-67
2022/05/17 08:30:47;;;;;;;5.85;3.25;;;;;;;31.68;30.03;100667.94;5039358;28;20745;-63
2022/05/17 08:33:17;;;;;;;6.53;2.80;;;;;;;30.30;31.45;100668.53;5046031;28;20260;-64
2022/05/17 08:35:55;;;;;;;7.65;3.05;;;;;;;29.84;31.64;100668.13;5042697;28;20194;-63
2022/05/17 08:38:24;;;;;;;5.13;2.15;;;;;;;29.83;30.83;100660.38;5075798;28;20185;-63
2022/05/17 08:40:58;;;;;;;6.75;1.80;;;;;;;29.08;32.72;100663.59;5048785;28;20237;-65
2022/05/17 08:43:42;;;;;;;5.18;2.05;;;;;;;28.97;31.48;100655.16;5072977;28;20276;-65
2022/05/17 08:46:34;;;;;;;6.32;1.90;;;;;;;29.67;28.74;100664.19;5060464;28;20239;-59
2022/05/17 08:49:11;;;;;;;4.30;1.40;;;;;;;31.28;27.11;100665.34;5034845;28;20194;-59
2022/05/17 08:51:44;;;;;;;5.43;1.70;;;;;;;32.13;25.33;100666.31;5065584;28;20232;-59
2022/05/17 08:54:14;;;;;;;6.10;2.22;;;;;;;32.05;27.00;100658.59;5035154;28;20186;-59
2022/05/17 08:56:45;;;;;;;6.18;2.42;;;;;;;31.16;28.06;100667.84;5043123;28;20193;-60
2022/05/17 08:59:16;;;;;;;4.60;2.05;;;;;;;31.72;28.35;100660.38;5050170;28;20190;-58
2022/05/17 09:01:56;;;;;;;4.57;2.65;;;;;;;32.60;27.08;100661.53;5065627;28;20233;-59
2022/05/17 09:04:45;;;;;;;5.13;2.58;;;;;;;31.21;28.57;100651.28;5057447;28;20212;-61
2022/05/17 09:07:14;;;;;;;2.95;2.50;;;;;;;31.11;28.56;100651.69;5040893;28;20194;-59
2022/05/17 09:10:01;;;;;;;4.15;2.70;;;;;;;31.52;28.84;100644.47;5086945;28;20284;-60
2022/05/17 09:12:40;;;;;;;6.35;2.85;;;;;;;32.32;29.51;100640.63;5062845;28;20216;-59
2022/05/17 09:15:06;;;;;;;4.78;2.45;;;;;;;33.91;27.23;100641.19;5047322;28;20297;-59
2022/05/17 09:17:34;;;;;;;6.25;2.47;;;;;;;33.33;26.38;100631.81;5067689;28;20217;-59
2022/05/17 09:19:59;;;;;;;4.28;2.47;;;;;;;32.86;27.87;100633.09;5070220;28;20208;-59
2022/05/17 09:22:26;;;;;;;4.03;2.28;;;;;;;33.02;26.57;100630.88;5079743;28;20663;-58
2022/05/17 09:24:57;;;;;;;7.15;2.80;;;;;;;32.75;28.20;100629.28;5071986;28;20251;-59
2022/05/17 09:27:36;;;;;;;5.60;2.00;;;;;;;33.60;25.95;100627.00;5079086;28;20180;-59
2022/05/17 09:30:26;;;;;;;5.38;1.83;;;;;;;34.10;25.02;100632.09;5067180;28;20204;-61
2022/05/17 09:33:04;;;;;;;9.63;2.28;;;;;;;34.70;24.54;100640.25;5069336;28;20204;-60
2022/05/17 09:35:30;;;;;;;5.40;2.13;;;;;;;35.37;24.34;100636.44;5071463;28;20260;-60
2022/05/17 09:37:58;;;;;;;5.20;1.75;;;;;;;35.65;23.55;100630.31;5070525;28;20177;-58
2022/05/17 09:40:28;;;;;;;5.28;1.90;;;;;;;34.93;24.54;100628.81;5076081;28;20245;-58
2022/05/17 09:42:57;;;;;;;4.63;1.63;;;;;;;34.72;23.64;100644.31;5070158;28;20550;-58
2022/05/17 09:46:03;;;;;;;3.95;1.98;;;;;;;33.49;25.54;100636.56;5070530;28;20191;-58
2022/05/17 09:48:30;;;;;;;5.43;2.00;;;;;;;34.03;24.58;100631.38;5039135;28;20181;-59
2022/05/17 09:53:48;;;;;;;3.70;1.60;;;;;;;33.17;25.96;100633.19;5075483;28;20278;-58
2022/05/17 09:56:16;;;;;;;2.78;1.60;;;;;;;34.41;23.98;100638.25;5070753;28;20185;-58
2022/05/17 09:58:42;;;;;;;5.35;1.95;;;;;;;33.29;24.28;100628.78;5063513;28;20528;-58
2022/05/17 10:01:20;;;;;;;4.75;1.75;;;;;;;30.46;28.36;100636.31;5073469;28;20380;-58
2022/05/17 10:04:05;;;;;;;3.40;1.83;;;;;;;33.68;23.72;100633.88;5086318;28;20192;-58
2022/05/17 10:06:37;;;;;;;3.55;1.83;;;;;;;34.22;23.08;100631.31;5070390;28;20187;-58
2022/05/17 10:09:06;;;;;;;2.78;1.58;;;;;;;35.79;21.56;100628.16;5066628;28;20185;-58
2022/05/17 10:11:52;;;;;;;2.15;1.38;;;;;;;36.14;20.99;100629.84;5056848;28;20255;-59
2022/05/17 10:14:33;;;;;;;4.30;1.75;;;;;;;35.92;21.00;100634.28;5052212;28;20189;-59
2022/05/17 10:17:10;;;;;;;4.38;1.83;;;;;;;35.75;22.34;100628.84;5066579;28;20572;-59
2022/05/17 10:19:41;;;;;;;3.85;1.92;;;;;;;33.73;22.82;100636.69;5044711;28;20703;-59
2022/05/17 10:22:25;;;;;;;4.30;1.73;;;;;;;32.02;24.30;100617.25;5068286;28;20315;-59
2022/05/17 10:25:12;;;;;;;2.83;1.30;;;;;;;35.09;22.93;100627.25;5041491;28;20220;-59
2022/05/17 10:27:43;;;;;;;4.07;1.55;;;;;;;35.95;21.65;100628.44;5049588;28;20219;-60
2022/05/17 10:30:15;;;;;;;4.20;1.50;;;;;;;35.63;21.48;100619.00;5062743;28;20712;-58
2022/05/17 10:33:01;;;;;;;1.95;1.30;;;;;;;34.52;22.60;100614.44;5048008;28;20200;-59
2022/05/17 10:35:54;;;;;;;2.33;1.35;;;;;;;36.32;20.74;100611.94;5051798;28;20247;-59
2022/05/17 10:38:28;;;;;;;3.38;1.30;;;;;;;34.82;20.67;100613.53;5049477;28;20196;-58
2022/05/17 10:40:55;;;;;;;3.90;1.38;;;;;;;35.14;21.29;100616.69;5066593;28;20235;-57
2022/05/17 10:43:32;;;;;;;3.70;1.45;;;;;;;34.81;21.40;100606.59;5071312;28;20215;-57
2022/05/17 10:46:08;;;;;;;3.03;1.60;;;;;;;34.00;22.67;100613.16;5071202;28;20192;-64
2022/05/17 10:48:58;;;;;;;3.17;1.70;;;;;;;32.17;24.70;100601.78;5071070;28;20642;-59
2022/05/17 10:51:41;;;;;;;4.78;2.03;;;;;;;30.45;27.07;100602.00;5064012;28;20318;-58
2022/05/17 10:54:24;;;;;;;3.97;2.00;;;;;;;30.72;28.99;100603.66;5075191;28;20796;-59
2022/05/17 10:57:11;;;;;;;4.72;1.58;;;;;;;29.28;30.29;100592.22;5071689;28;20184;-59
2022/05/17 10:59:56;;;;;;;4.30;1.90;;;;;;;29.21;30.74;100597.47;5072432;28;20215;-59
2022/05/17 11:02:45;;;;;;;4.90;1.90;;;;;;;28.89;31.64;100589.13;5034567;28;20236;-59
2022/05/17 11:05:30;;;;;;;3.53;1.95;;;;;;;28.71;32.97;100581.63;5070888;28;20189;-58
2022/05/17 11:08:02;;;;;;;7.18;1.98;;;;;;;28.09;30.87;100581.25;5071947;28;20183;-59
2022/05/17 11:10:48;;;;;;;2.47;1.35;;;;;;;28.01;31.11;100582.16;5063334;28;20328;-59
2022/05/17 11:13:35;;;;;;;5.38;2.00;;;;;;;27.81;35.67;100579.31;5076014;28;20177;-59
2022/05/17 11:16:16;;;;;;;4.88;1.80;;;;;;;27.63;34.23;100574.41;5048636;28;20267;-59
2022/05/17 11:18:48;;;;;;;5.38;2.20;;;;;;;27.31;32.80;100567.66;5046930;28;20210;-58
2022/05/17 11:21:22;;;;;;;3.70;1.50;;;;;;;27.32;34.95;100570.13;5040558;28;20678;-59
2022/05/17 11:23:53;;;;;;;3.67;1.40;;;;;;;27.38;33.40;100565.94;5061597;28;20165;-59
2022/05/17 11:26:40;;;;;;;2.15;1.73;;;;;;;27.35;32.01;100564.50;5046962;28;20243;-59
2022/05/17 11:29:43;;;;;;;4.63;2.08;;;;;;;27.17;34.06;100566.69;5046650;28;20193;-59
2022/05/17 11:32:30;;;;;;;2.25;2.00;;;;;;;26.70;34.49;100564.13;5038660;28;20232;-60
2022/05/17 11:34:59;;;;;;;4.68;1.67;;;;;;;26.85;34.28;100556.25;5067245;28;20279;-58
2022/05/17 11:37:38;;;;;;;2.65;1.77;;;;;;;26.92;32.54;100552.91;5066627;28;20196;-59